sensor_id;sensor_type;location;lat;lon;timestamp;pressure;altitude;pressure_sealevel;temperature;humidity
41945;BME280;63122;52.424;13.458;2022-12-18T00:00:01;102570.69;;;-6.58;100.00
41945;BME280;63122;52.424;13.458;2022-12-18T00:02:34;102568.16;;;-6.54;100.00
41945;BME280;63122;52.424;13.458;2022-12-18T00:05:06;102575.91;;;-6.49;100.00
41945;BME280;63122;52.424;13.458;2022-12-18T00:07:37;102574.06;;;-6.73;100.00
41945;BME280;63122;52.424;13.458;2022-12-18T00:10:09;102576.69;;;-6.67;100.00
41945;BME280;63122;52.424;13.458;2022-12-18T00:12:43;102573.25;;;-6.65;100.00
41945;BME280;63122;52.424;13.458;2022-12-18T00:15:14;102580.91;;;-6.72;100.00
41945;BME280;63122;52.424;13.458;2022-12-18T00:17:48;102577.53;;;-6.68;100.00
41945;BME280;63122;52.424;13.458;2022-12-18T00:20:19;102584.31;;;-6.76;100.00
41945;BME280;63122;52.424;13.458;2022-12-18T00:22:53;102574.09;;;-6.72;100.00
41945;BME280;63122;52.424;13.458;2022-12-18T00:25:24;102573.25;;;-6.66;100.00
41945;BME280;63122;52.424;13.458;2022-12-18T00:27:55;102583.53;;;-6.66;100.00
41945;BME280;63122;52.424;13.458;2022-12-18T00:30:27;102577.47;;;-6.77;100.00
41945;BME280;63122;52.424;13.458;2022-12-18T00:33:01;102565.50;;;-6.78;100.00
41945;BME280;63122;52.424;13.458;2022-12-18T00:35:32;102577.50;;;-6.76;100.00
41945;BME280;63122;52.424;13.458;2022-12-18T00:38:03;102572.34;;;-6.76;100.00
41945;BME280;63122;52.424;13.458;2022-12-18T00:40:34;102566.31;;;-6.84;100.00
41945;BME280;63122;52.424;13.458;2022-12-18T00:43:05;102574.84;;;-6.96;100.00
41945;BME280;63122;52.424;13.458;2022-12-18T00:45:33;102571.38;;;-6.98;100.00
41945;BME280;63122;52.424;13.458;2022-12-18T00:48:10;102564.53;;;-6.98;100.00
41945;BME280;63122;52.424;13.458;2022-12-18T00:50:48;102568.81;;;-6.98;100.00
41945;BME280;63122;52.424;13.458;2022-12-18T00:53:26;102567.88;;;-7.16;100.00
41945;BME280;63122;52.424;13.458;2022-12-18T00:56:56;102561.88;;;-7.15;100.00
41945;BME280;63122;52.424;13.458;2022-12-18T00:59:50;102559.34;;;-7.10;100.00
41945;BME280;63122;52.424;13.458;2022-12-18T01:02:21;102561.97;;;-6.98;100.00
41945;BME280;63122;52.424;13.458;2022-12-18T01:04:54;102558.59;;;-6.95;100.00
41945;BME280;63122;52.424;13.458;2022-12-18T01:07:25;102563.72;;;-6.92;100.00
41945;BME280;63122;52.424;13.458;2022-12-18T01:09:56;102565.44;;;-6.91;100.00
41945;BME280;63122;52.424;13.458;2022-12-18T01:12:27;102562.78;;;-7.06;100.00
41945;BME280;63122;52.424;13.458;2022-12-18T01:14:58;102566.22;;;-7.04;100.00
41945;BME280;63122;52.424;13.458;2022-12-18T01:17:29;102568.75;;;-7.07;100.00
41945;BME280;63122;52.424;13.458;2022-12-18T01:20:02;102572.13;;;-7.21;100.00
41945;BME280;63122;52.424;13.458;2022-12-18T01:22:33;102582.50;;;-6.98;100.00
41945;BME280;63122;52.424;13.458;2022-12-18T01:25:06;102580.69;;;-7.14;100.00
41945;BME280;63122;52.424;13.458;2022-12-18T01:27:41;102579.03;;;-7.04;100.00
41945;BME280;63122;52.424;13.458;2022-12-18T01:30:12;102593.53;;;-7.16;100.00
41945;BME280;63122;52.424;13.458;2022-12-18T01:32:43;102585.81;;;-7.16;100.00
41945;BME280;63122;52.424;13.458;2022-12-18T01:35:16;102587.63;;;-6.98;100.00
41945;BME280;63122;52.424;13.458;2022-12-18T01:37:47;102582.53;;;-6.96;100.00
41945;BME280;63122;52.424;13.458;2022-12-18T01:40:17;102590.25;;;-6.93;100.00
41945;BME280;63122;52.424;13.458;2022-12-18T01:42:50;102591.94;;;-6.95;100.00
41945;BME280;63122;52.424;13.458;2022-12-18T01:45:23;102595.38;;;-6.96;100.00
41945;BME280;63122;52.424;13.458;2022-12-18T01:47:56;102596.22;;;-6.94;100.00
41945;BME280;63122;52.424;13.458;2022-12-18T01:50:34;102598.78;;;-6.94;100.00
41945;BME280;63122;52.424;13.458;2022-12-18T01:53:10;102594.47;;;-6.98;100.00
41945;BME280;63122;52.424;13.458;2022-12-18T01:55:45;102596.16;;;-7.05;100.00
41945;BME280;63122;52.424;13.458;2022-12-18T01:58:18;102592.81;;;-6.90;100.00
41945;BME280;63122;52.424;13.458;2022-12-18T02:00:49;102600.50;;;-6.91;100.00
41945;BME280;63122;52.424;13.458;2022-12-18T02:03:19;102600.44;;;-6.99;100.00
41945;BME280;63122;52.424;13.458;2022-12-18T02:06:00;102608.09;;;-7.10;100.00
41945;BME280;63122;52.424;13.458;2022-12-18T02:08:44;102607.31;;;-6.97;100.00
41945;BME280;63122;52.424;13.458;2022-12-18T02:11:22;102603.88;;;-7.02;100.00
41945;BME280;63122;52.424;13.458;2022-12-18T02:14:04;102608.97;;;-7.03;100.00
41945;BME280;63122;52.424;13.458;2022-12-18T02:16:41;102613.06;;;-7.30;100.00
41945;BME280;63122;52.424;13.458;2022-12-18T02:19:27;102612.22;;;-7.34;100.00
41945;BME280;63122;52.424;13.458;2022-12-18T02:22:17;102609.66;;;-7.34;100.00
41945;BME280;63122;52.424;13.458;2022-12-18T02:25:04;102605.41;;;-7.26;100.00
41945;BME280;63122;52.424;13.458;2022-12-18T02:27:41;102613.88;;;-7.38;100.00
41945;BME280;63122;52.424;13.458;2022-12-18T02:30:16;102615.78;;;-7.12;100.00
41945;BME280;63122;52.424;13.458;2022-12-18T02:32:50;102611.47;;;-7.16;100.00
41945;BME280;63122;52.424;13.458;2022-12-18T02:35:30;102615.78;;;-7.09;100.00
41945;BME280;63122;52.424;13.458;2022-12-18T02:38:01;102618.31;;;-7.13;100.00
41945;BME280;63122;52.424;13.458;2022-12-18T02:40:34;102630.25;;;-7.18;100.00
41945;BME280;63122;52.424;13.458;2022-12-18T02:43:14;102632.75;;;-7.26;100.00
41945;BME280;63122;52.424;13.458;2022-12-18T02:45:47;102632.72;;;-7.37;100.00
41945;BME280;63122;52.424;13.458;2022-12-18T02:48:22;102631.88;;;-7.31;100.00
41945;BME280;63122;52.424;13.458;2022-12-18T02:51:01;102633.63;;;-7.29;100.00
41945;BME280;63122;52.424;13.458;2022-12-18T02:53:39;102630.19;;;-7.31;100.00
41945;BME280;63122;52.424;13.458;2022-12-18T02:56:18;102634.41;;;-7.38;100.00
41945;BME280;63122;52.424;13.458;2022-12-18T02:58:57;102630.13;;;-7.35;100.00
41945;BME280;63122;52.424;13.458;2022-12-18T03:01:33;102626.66;;;-7.42;100.00
41945;BME280;63122;52.424;13.458;2022-12-18T03:04:10;102629.19;;;-7.47;100.00
41945;BME280;63122;52.424;13.458;2022-12-18T03:06:46;102631.66;;;-7.58;100.00
41945;BME280;63122;52.424;13.458;2022-12-18T03:09:21;102629.94;;;-7.57;100.00
41945;BME280;63122;52.424;13.458;2022-12-18T03:11:58;102636.13;;;-7.37;100.00
41945;BME280;63122;52.424;13.458;2022-12-18T03:14:49;102632.72;;;-7.37;100.00
41945;BME280;63122;52.424;13.458;2022-12-18T03:17:23;102630.91;;;-7.44;100.00
41945;BME280;63122;52.424;13.458;2022-12-18T03:19:57;102625.91;;;-7.30;100.00
41945;BME280;63122;52.424;13.458;2022-12-18T03:22:30;102629.91;;;-7.63;100.00
41945;BME280;63122;52.424;13.458;2022-12-18T03:25:05;102636.16;;;-7.32;100.00
41945;BME280;63122;52.424;13.458;2022-12-18T03:27:45;102639.41;;;-7.53;100.00
41945;BME280;63122;52.424;13.458;2022-12-18T03:30:19;102636.88;;;-7.45;100.00
41945;BME280;63122;52.424;13.458;2022-12-18T03:33:01;102653.88;;;-7.58;100.00
41945;BME280;63122;52.424;13.458;2022-12-18T03:35:36;102639.53;;;-7.38;100.00
41945;BME280;63122;52.424;13.458;2022-12-18T03:38:08;102651.34;;;-7.57;100.00
41945;BME280;63122;52.424;13.458;2022-12-18T03:40:46;102652.22;;;-7.53;100.00
41945;BME280;63122;52.424;13.458;2022-12-18T03:43:23;102651.28;;;-7.63;100.00
41945;BME280;63122;52.424;13.458;2022-12-18T03:46:04;102651.31;;;-7.58;100.00
41945;BME280;63122;52.424;13.458;2022-12-18T03:48:41;102635.00;;;-7.67;100.00
41945;BME280;63122;52.424;13.458;2022-12-18T03:51:16;102632.50;;;-7.60;100.00
41945;BME280;63122;52.424;13.458;2022-12-18T03:53:53;102631.66;;;-7.61;100.00
41945;BME280;63122;52.424;13.458;2022-12-18T03:56:28;102636.88;;;-7.48;100.00
41945;BME280;63122;52.424;13.458;2022-12-18T03:59:01;102645.38;;;-7.53;100.00
41945;BME280;63122;52.424;13.458;2022-12-18T04:01:38;102642.00;;;-7.50;100.00
41945;BME280;63122;52.424;13.458;2022-12-18T04:04:10;102642.78;;;-7.54;100.00
41945;BME280;63122;52.424;13.458;2022-12-18T04:06:41;102637.66;;;-7.59;100.00
41945;BME280;63122;52.424;13.458;2022-12-18T04:09:13;102639.34;;;-7.58;100.00
41945;BME280;63122;52.424;13.458;2022-12-18T04:11:44;102642.03;;;-7.42;100.00
41945;BME280;63122;52.424;13.458;2022-12-18T04:14:15;102644.34;;;-7.70;100.00
41945;BME280;63122;52.424;13.458;2022-12-18T04:17:04;102641.84;;;-7.67;100.00
41945;BME280;63122;52.424;13.458;2022-12-18T04:19:40;102648.63;;;-7.69;100.00
41945;BME280;63122;52.424;13.458;2022-12-18T04:22:10;102652.81;;;-7.81;100.00
41945;BME280;63122;52.424;13.458;2022-12-18T04:24:40;102650.34;;;-7.68;100.00
41945;BME280;63122;52.424;13.458;2022-12-18T04:27:10;102655.41;;;-7.77;100.00
41945;BME280;63122;52.424;13.458;2022-12-18T04:29:41;102659.59;;;-7.86;100.00
41945;BME280;63122;52.424;13.458;2022-12-18T04:32:13;102660.44;;;-7.85;100.00
41945;BME280;63122;52.424;13.458;2022-12-18T04:34:44;102668.97;;;-7.88;100.00
41945;BME280;63122;52.424;13.458;2022-12-18T04:37:14;102671.56;;;-7.85;100.00
41945;BME280;63122;52.424;13.458;2022-12-18T04:39:45;102661.22;;;-7.94;100.00
41945;BME280;63122;52.424;13.458;2022-12-18T04:42:14;102659.56;;;-7.87;100.00
41945;BME280;63122;52.424;13.458;2022-12-18T04:44:45;102669.97;;;-7.73;100.00
41945;BME280;63122;52.424;13.458;2022-12-18T04:47:17;102663.03;;;-7.82;100.00
41945;BME280;63122;52.424;13.458;2022-12-18T04:49:48;102676.03;;;-7.63;100.00
41945;BME280;63122;52.424;13.458;2022-12-18T04:52:18;102686.00;;;-7.91;100.00
41945;BME280;63122;52.424;13.458;2022-12-18T04:54:51;102674.22;;;-7.75;100.00
41945;BME280;63122;52.424;13.458;2022-12-18T04:57:20;102674.22;;;-7.77;100.00
41945;BME280;63122;52.424;13.458;2022-12-18T04:59:51;102674.31;;;-7.64;100.00
41945;BME280;63122;52.424;13.458;2022-12-18T05:02:23;102670.94;;;-7.60;100.00
41945;BME280;63122;52.424;13.458;2022-12-18T05:04:54;102676.91;;;-7.63;100.00
41945;BME280;63122;52.424;13.458;2022-12-18T05:07:24;102676.91;;;-7.61;100.00
41945;BME280;63122;52.424;13.458;2022-12-18T05:09:54;102665.78;;;-7.63;100.00
41945;BME280;63122;52.424;13.458;2022-12-18T05:12:25;102664.97;;;-7.61;100.00
41945;BME280;63122;52.424;13.458;2022-12-18T05:14:55;102670.97;;;-7.57;100.00
41945;BME280;63122;52.424;13.458;2022-12-18T05:17:28;102670.13;;;-7.58;100.00
41945;BME280;63122;52.424;13.458;2022-12-18T05:19:59;102680.47;;;-7.48;100.00
41945;BME280;63122;52.424;13.458;2022-12-18T05:22:29;102689.97;;;-7.38;100.00
41945;BME280;63122;52.424;13.458;2022-12-18T05:24:59;102692.47;;;-7.44;100.00
41945;BME280;63122;52.424;13.458;2022-12-18T05:27:29;102691.47;;;-7.62;100.00
41945;BME280;63122;52.424;13.458;2022-12-18T05:29:59;102692.22;;;-7.69;100.00
41945;BME280;63122;52.424;13.458;2022-12-18T05:32:31;102690.59;;;-7.59;100.00
41945;BME280;63122;52.424;13.458;2022-12-18T05:35:02;102696.63;;;-7.54;100.00
41945;BME280;63122;52.424;13.458;2022-12-18T05:37:32;102705.19;;;-7.55;100.00
41945;BME280;63122;52.424;13.458;2022-12-18T05:40:10;102700.09;;;-7.52;100.00
41945;BME280;63122;52.424;13.458;2022-12-18T05:42:40;102706.81;;;-7.63;100.00
41945;BME280;63122;52.424;13.458;2022-12-18T05:45:11;102701.75;;;-7.59;100.00
41945;BME280;63122;52.424;13.458;2022-12-18T05:47:43;102715.34;;;-7.66;100.00
41945;BME280;63122;52.424;13.458;2022-12-18T05:50:14;102716.19;;;-7.67;100.00
41945;BME280;63122;52.424;13.458;2022-12-18T05:52:44;102726.34;;;-7.73;100.00
41945;BME280;63122;52.424;13.458;2022-12-18T05:55:14;102722.75;;;-7.91;100.00
41945;BME280;63122;52.424;13.458;2022-12-18T05:57:44;102713.56;;;-7.72;100.00
41945;BME280;63122;52.424;13.458;2022-12-18T06:00:15;102713.66;;;-7.64;100.00
41945;BME280;63122;52.424;13.458;2022-12-18T06:02:49;102717.81;;;-7.74;100.00
41945;BME280;63122;52.424;13.458;2022-12-18T06:05:19;102724.72;;;-7.67;100.00
41945;BME280;63122;52.424;13.458;2022-12-18T06:07:49;102721.25;;;-7.72;100.00
41945;BME280;63122;52.424;13.458;2022-12-18T06:10:19;102724.78;;;-7.60;100.00
41945;BME280;63122;52.424;13.458;2022-12-18T06:12:49;102728.25;;;-7.57;100.00
41945;BME280;63122;52.424;13.458;2022-12-18T06:15:20;102734.22;;;-7.56;100.00
41945;BME280;63122;52.424;13.458;2022-12-18T06:17:52;102743.59;;;-7.58;100.00
41945;BME280;63122;52.424;13.458;2022-12-18T06:20:22;102735.03;;;-7.62;100.00
41945;BME280;63122;52.424;13.458;2022-12-18T06:23:00;102737.59;;;-7.60;100.00
41945;BME280;63122;52.424;13.458;2022-12-18T06:25:30;102744.41;;;-7.64;100.00
41945;BME280;63122;52.424;13.458;2022-12-18T06:28:00;102752.09;;;-7.67;100.00
41945;BME280;63122;52.424;13.458;2022-12-18T06:30:31;102746.13;;;-7.61;100.00
41945;BME280;63122;52.424;13.458;2022-12-18T06:33:04;102744.31;;;-7.70;100.00
41945;BME280;63122;52.424;13.458;2022-12-18T06:35:34;102746.91;;;-7.69;100.00
41945;BME280;63122;52.424;13.458;2022-12-18T06:38:04;102753.84;;;-7.58;100.00
41945;BME280;63122;52.424;13.458;2022-12-18T06:40:36;102755.53;;;-7.60;100.00
41945;BME280;63122;52.424;13.458;2022-12-18T06:43:07;102751.25;;;-7.61;100.00
41945;BME280;63122;52.424;13.458;2022-12-18T06:45:37;102755.53;;;-7.65;100.00
41945;BME280;63122;52.424;13.458;2022-12-18T06:48:10;102763.34;;;-7.53;100.00
41945;BME280;63122;52.424;13.458;2022-12-18T06:50:42;102759.94;;;-7.50;100.00
41945;BME280;63122;52.424;13.458;2022-12-18T06:53:12;102763.34;;;-7.49;100.00
41945;BME280;63122;52.424;13.458;2022-12-18T06:55:43;102771.19;;;-7.37;100.00
41945;BME280;63122;52.424;13.458;2022-12-18T06:58:13;102776.38;;;-7.31;100.00
41945;BME280;63122;52.424;13.458;2022-12-18T07:00:43;102785.81;;;-7.28;100.00
41945;BME280;63122;52.424;13.458;2022-12-18T07:03:16;102790.97;;;-7.27;100.00
41945;BME280;63122;52.424;13.458;2022-12-18T07:05:46;102790.03;;;-7.33;100.00
41945;BME280;63122;52.424;13.458;2022-12-18T07:08:16;102781.53;;;-7.31;100.00
41945;BME280;63122;52.424;13.458;2022-12-18T07:10:46;102780.66;;;-7.33;100.00
41945;BME280;63122;52.424;13.458;2022-12-18T07:13:22;102790.75;;;-7.47;100.00
41945;BME280;63122;52.424;13.458;2022-12-18T07:15:52;102775.34;;;-7.50;100.00
41945;BME280;63122;52.424;13.458;2022-12-18T07:18:25;102777.06;;;-7.49;100.00
41945;BME280;63122;52.424;13.458;2022-12-18T07:20:55;102779.59;;;-7.50;100.00
41945;BME280;63122;52.424;13.458;2022-12-18T07:23:26;102783.91;;;-7.46;100.00
41945;BME280;63122;52.424;13.458;2022-12-18T07:26:00;102779.59;;;-7.50;100.00
41945;BME280;63122;52.424;13.458;2022-12-18T07:28:33;102786.41;;;-7.53;100.00
41945;BME280;63122;52.424;13.458;2022-12-18T07:31:05;102790.78;;;-7.44;100.00
41945;BME280;63122;52.424;13.458;2022-12-18T07:33:38;102781.34;;;-7.46;100.00
41945;BME280;63122;52.424;13.458;2022-12-18T07:36:09;102777.13;;;-7.43;100.00
41945;BME280;63122;52.424;13.458;2022-12-18T07:38:40;102782.25;;;-7.43;100.00
41945;BME280;63122;52.424;13.458;2022-12-18T07:41:12;102778.91;;;-7.35;100.00
41945;BME280;63122;52.424;13.458;2022-12-18T07:43:42;102783.16;;;-7.39;100.00
41945;BME280;63122;52.424;13.458;2022-12-18T07:46:13;102785.72;;;-7.39;100.00
41945;BME280;63122;52.424;13.458;2022-12-18T07:48:46;102787.44;;;-7.38;100.00
41945;BME280;63122;52.424;13.458;2022-12-18T07:51:17;102791.78;;;-7.31;100.00
41945;BME280;63122;52.424;13.458;2022-12-18T07:53:47;102791.03;;;-7.22;100.00
41945;BME280;63122;52.424;13.458;2022-12-18T07:56:19;102784.09;;;-7.28;100.00
41945;BME280;63122;52.424;13.458;2022-12-18T07:58:56;102784.94;;;-7.30;100.00
41945;BME280;63122;52.424;13.458;2022-12-18T08:01:27;102778.13;;;-7.27;100.00
41945;BME280;63122;52.424;13.458;2022-12-18T08:04:00;102778.91;;;-7.35;100.00
41945;BME280;63122;52.424;13.458;2022-12-18T08:06:30;102784.03;;;-7.37;100.00
41945;BME280;63122;52.424;13.458;2022-12-18T08:09:00;102791.00;;;-7.25;100.00
41945;BME280;63122;52.424;13.458;2022-12-18T08:11:30;102788.38;;;-7.30;100.00
41945;BME280;63122;52.424;13.458;2022-12-18T08:14:00;102791.78;;;-7.29;100.00
41945;BME280;63122;52.424;13.458;2022-12-18T08:16:31;102797.75;;;-7.30;100.00
41945;BME280;63122;52.424;13.458;2022-12-18T08:19:03;102794.31;;;-7.32;100.00
41945;BME280;63122;52.424;13.458;2022-12-18T08:21:34;102784.94;;;-7.30;100.00
41945;BME280;63122;52.424;13.458;2022-12-18T08:24:04;102789.25;;;-7.26;100.00
41945;BME280;63122;52.424;13.458;2022-12-18T08:26:35;102798.72;;;-7.20;100.00
41945;BME280;63122;52.424;13.458;2022-12-18T08:29:05;102800.38;;;-7.26;100.00
41945;BME280;63122;52.424;13.458;2022-12-18T08:31:35;102798.69;;;-7.24;100.00
41945;BME280;63122;52.424;13.458;2022-12-18T08:34:08;102796.13;;;-7.25;100.00
41945;BME280;63122;52.424;13.458;2022-12-18T08:36:38;102798.47;;;-7.42;100.00
41945;BME280;63122;52.424;13.458;2022-12-18T08:39:08;102805.44;;;-7.30;100.00
41945;BME280;63122;52.424;13.458;2022-12-18T08:41:38;102799.44;;;-7.32;100.00
41945;BME280;63122;52.424;13.458;2022-12-18T08:44:09;102802.06;;;-7.26;100.00
41945;BME280;63122;52.424;13.458;2022-12-18T08:46:51;102814.09;;;-7.20;100.00
41945;BME280;63122;52.424;13.458;2022-12-18T08:49:24;102808.03;;;-7.29;100.00
41945;BME280;63122;52.424;13.458;2022-12-18T08:51:54;102811.50;;;-7.24;100.00
41945;BME280;63122;52.424;13.458;2022-12-18T08:54:25;102811.56;;;-7.17;100.00
41945;BME280;63122;52.424;13.458;2022-12-18T08:56:55;102813.31;;;-7.15;100.00
41945;BME280;63122;52.424;13.458;2022-12-18T08:59:28;102828.06;;;-6.94;100.00
41945;BME280;63122;52.424;13.458;2022-12-18T09:01:59;102831.41;;;-6.99;100.00
41945;BME280;63122;52.424;13.458;2022-12-18T09:04:32;102831.38;;;-7.07;100.00
41945;BME280;63122;52.424;13.458;2022-12-18T09:07:02;102837.41;;;-7.02;100.00
41945;BME280;63122;52.424;13.458;2022-12-18T09:09:32;102836.56;;;-7.01;100.00
41945;BME280;63122;52.424;13.458;2022-12-18T09:12:02;102843.38;;;-7.03;100.00
41945;BME280;63122;52.424;13.458;2022-12-18T09:14:33;102843.50;;;-6.92;100.00
41945;BME280;63122;52.424;13.458;2022-12-18T09:17:03;102844.34;;;-6.90;100.00
41945;BME280;63122;52.424;13.458;2022-12-18T09:19:35;102842.63;;;-6.89;100.00
41945;BME280;63122;52.424;13.458;2022-12-18T09:22:06;102845.22;;;-6.91;100.00
41945;BME280;63122;52.424;13.458;2022-12-18T09:24:36;102850.38;;;-6.85;100.00
41945;BME280;63122;52.424;13.458;2022-12-18T09:27:06;102844.34;;;-6.88;100.00
41945;BME280;63122;52.424;13.458;2022-12-18T09:29:36;102853.84;;;-6.83;100.00
41945;BME280;63122;52.424;13.458;2022-12-18T09:32:07;102852.19;;;-6.74;100.00
41945;BME280;63122;52.424;13.458;2022-12-18T09:34:39;102856.50;;;-6.70;100.00
41945;BME280;63122;52.424;13.458;2022-12-18T09:37:10;102860.78;;;-6.71;100.00
41945;BME280;63122;52.424;13.458;2022-12-18T09:39:40;102846.31;;;-6.61;100.00
41945;BME280;63122;52.424;13.458;2022-12-18T09:42:12;102847.16;;;-6.63;100.00
41945;BME280;63122;52.424;13.458;2022-12-18T09:44:49;102835.16;;;-6.66;100.00
41945;BME280;63122;52.424;13.458;2022-12-18T09:47:23;102826.63;;;-6.60;100.00
41945;BME280;63122;52.424;13.458;2022-12-18T09:49:59;102820.72;;;-6.53;100.00
41945;BME280;63122;52.424;13.458;2022-12-18T09:52:33;102819.88;;;-6.51;100.00
41945;BME280;63122;52.424;13.458;2022-12-18T09:55:11;102824.16;;;-6.51;100.00
41945;BME280;63122;52.424;13.458;2022-12-18T09:57:47;102818.19;;;-6.45;100.00
41945;BME280;63122;52.424;13.458;2022-12-18T10:00:21;102813.06;;;-6.47;100.00
41945;BME280;63122;52.424;13.458;2022-12-18T10:02:58;102801.88;;;-6.51;100.00
41945;BME280;63122;52.424;13.458;2022-12-18T10:05:39;102795.06;;;-6.45;100.00
41945;BME280;63122;52.424;13.458;2022-12-18T10:08:18;102785.72;;;-6.37;100.00
41945;BME280;63122;52.424;13.458;2022-12-18T10:10:53;102780.63;;;-6.28;100.00
41945;BME280;63122;52.424;13.458;2022-12-18T10:13:31;102790.88;;;-6.29;100.00
41945;BME280;63122;52.424;13.458;2022-12-18T10:16:12;102789.22;;;-6.26;100.00
41945;BME280;63122;52.424;13.458;2022-12-18T10:19:14;102789.22;;;-6.24;100.00
41945;BME280;63122;52.424;13.458;2022-12-18T10:21:58;102794.38;;;-6.21;100.00
41945;BME280;63122;52.424;13.458;2022-12-18T10:24:33;102787.53;;;-6.19;100.00
41945;BME280;63122;52.424;13.458;2022-12-18T10:27:14;102786.72;;;-6.12;100.00
41945;BME280;63122;52.424;13.458;2022-12-18T10:29:45;102779.91;;;-6.08;100.00
41945;BME280;63122;52.424;13.458;2022-12-18T10:32:17;102780.75;;;-6.09;100.00
41945;BME280;63122;52.424;13.458;2022-12-18T10:34:50;102785.88;;;-6.12;100.00
41945;BME280;63122;52.424;13.458;2022-12-18T10:37:29;102771.31;;;-6.09;100.00
41945;BME280;63122;52.424;13.458;2022-12-18T10:40:09;102773.06;;;-6.06;100.00
41945;BME280;63122;52.424;13.458;2022-12-18T10:42:46;102772.16;;;-6.00;100.00
41945;BME280;63122;52.424;13.458;2022-12-18T10:45:22;102759.31;;;-6.00;100.00
41945;BME280;63122;52.424;13.458;2022-12-18T10:47:52;102754.22;;;-5.89;100.00
41945;BME280;63122;52.424;13.458;2022-12-18T10:50:26;102755.94;;;-5.92;100.00
41945;BME280;63122;52.424;13.458;2022-12-18T10:53:22;102759.34;;;-6.02;100.00
41945;BME280;63122;52.424;13.458;2022-12-18T10:55:54;102750.81;;;-5.93;100.00
41945;BME280;63122;52.424;13.458;2022-12-18T10:58:27;102751.63;;;-5.99;100.00
41945;BME280;63122;52.424;13.458;2022-12-18T11:01:05;102748.22;;;-5.99;100.00
41945;BME280;63122;52.424;13.458;2022-12-18T11:03:37;102738.78;;;-5.96;100.00
41945;BME280;63122;52.424;13.458;2022-12-18T11:06:10;102747.38;;;-5.92;100.00
41945;BME280;63122;52.424;13.458;2022-12-18T11:08:57;102737.09;;;-5.95;100.00
41945;BME280;63122;52.424;13.458;2022-12-18T11:11:28;102741.34;;;-5.93;100.00
41945;BME280;63122;52.424;13.458;2022-12-18T11:14:01;102746.47;;;-5.99;100.00
41945;BME280;63122;52.424;13.458;2022-12-18T11:16:34;102755.06;;;-6.03;100.00
41945;BME280;63122;52.424;13.458;2022-12-18T11:19:17;102747.34;;;-6.01;100.00
41945;BME280;63122;52.424;13.458;2022-12-18T11:21:51;102744.78;;;-6.01;100.00
41945;BME280;63122;52.424;13.458;2022-12-18T11:24:28;102734.47;;;-6.00;100.00
41945;BME280;63122;52.424;13.458;2022-12-18T11:27:01;102744.78;;;-6.04;100.00
41945;BME280;63122;52.424;13.458;2022-12-18T11:29:34;102742.22;;;-6.03;100.00
41945;BME280;63122;52.424;13.458;2022-12-18T11:32:23;102739.66;;;-5.98;100.00
41945;BME280;63122;52.424;13.458;2022-12-18T11:34:59;102735.34;;;-5.99;100.00
41945;BME280;63122;52.424;13.458;2022-12-18T11:37:32;102741.38;;;-5.94;100.00
41945;BME280;63122;52.424;13.458;2022-12-18T11:40:09;102751.66;;;-5.97;100.00
41945;BME280;63122;52.424;13.458;2022-12-18T11:42:48;102743.94;;;-5.94;100.00
41945;BME280;63122;52.424;13.458;2022-12-18T11:45:28;102741.38;;;-5.91;100.00
41945;BME280;63122;52.424;13.458;2022-12-18T11:48:03;102741.38;;;-5.86;100.00
41945;BME280;63122;52.424;13.458;2022-12-18T11:50:43;102746.53;;;-5.85;100.00
41945;BME280;63122;52.424;13.458;2022-12-18T11:53:15;102743.97;;;-5.88;100.00
41945;BME280;63122;52.424;13.458;2022-12-18T11:56:00;102744.00;;;-5.77;100.00
41945;BME280;63122;52.424;13.458;2022-12-18T11:58:43;102757.69;;;-5.76;100.00
41945;BME280;63122;52.424;13.458;2022-12-18T12:01:27;102757.72;;;-5.78;100.00
41945;BME280;63122;52.424;13.458;2022-12-18T12:04:11;102762.03;;;-5.65;100.00
41945;BME280;63122;52.424;13.458;2022-12-18T12:06:51;102754.34;;;-5.63;100.00
41945;BME280;63122;52.424;13.458;2022-12-18T12:09:35;102760.31;;;-5.67;100.00
41945;BME280;63122;52.424;13.458;2022-12-18T12:12:32;102762.88;;;-5.63;100.00
41945;BME280;63122;52.424;13.458;2022-12-18T12:15:28;102768.03;;;-5.70;100.00
41945;BME280;63122;52.424;13.458;2022-12-18T12:18:07;102762.88;;;-5.66;100.00
41945;BME280;63122;52.424;13.458;2022-12-18T12:20:47;102773.19;;;-5.63;100.00
41945;BME280;63122;52.424;13.458;2022-12-18T12:23:28;102763.75;;;-5.65;100.00
41945;BME280;63122;52.424;13.458;2022-12-18T12:26:04;102768.91;;;-5.68;100.00
41945;BME280;63122;52.424;13.458;2022-12-18T12:28:55;102765.47;;;-5.64;100.00
41945;BME280;63122;52.424;13.458;2022-12-18T12:31:41;102777.44;;;-5.72;100.00
41945;BME280;63122;52.424;13.458;2022-12-18T12:34:20;102775.75;;;-5.67;100.00
41945;BME280;63122;52.424;13.458;2022-12-18T12:37:03;102787.75;;;-5.65;100.00
41945;BME280;63122;52.424;13.458;2022-12-18T12:39:37;102792.91;;;-5.66;100.00
41945;BME280;63122;52.424;13.458;2022-12-18T12:42:16;102802.31;;;-5.68;100.00
41945;BME280;63122;52.424;13.458;2022-12-18T12:45:21;102791.16;;;-5.69;100.00
41945;BME280;63122;52.424;13.458;2022-12-18T12:47:58;102789.47;;;-5.64;100.00
41945;BME280;63122;52.424;13.458;2022-12-18T12:50:33;102788.63;;;-5.59;100.00
41945;BME280;63122;52.424;13.458;2022-12-18T12:53:07;102786.03;;;-5.59;100.00
41945;BME280;63122;52.424;13.458;2022-12-18T12:55:40;102770.66;;;-5.49;100.00
41945;BME280;63122;52.424;13.458;2022-12-18T12:58:16;102758.69;;;-5.40;100.00
41945;BME280;63122;52.424;13.458;2022-12-18T13:00:58;102753.53;;;-5.37;100.00
41945;BME280;63122;52.424;13.458;2022-12-18T13:03:45;102746.66;;;-5.37;100.00
41945;BME280;63122;52.424;13.458;2022-12-18T13:06:32;102739.78;;;-5.41;100.00